This is the latest recevied weather packets stored in our database for station/object JE7UPL-13. If no packets are shown the sender has not sent any weather packets the latest 10 day(s).
| Time | Temp. | Humidity | Pressure | Rain* | Wind** | Luminosity | Snow |
|---|---|---|---|---|---|---|---|
| 1777805105 | 12.78° C | 87% | 1002.3 hPa | 0 mm | - | - | - |
| 1777804205 | 12.78° C | 86% | 1002.2 hPa | 0 mm | - | - | - |
| 1777803304 | 13.33° C | 84% | 1002.4 hPa | 0 mm | - | - | - |
| 1777802405 | 13.89° C | 80% | 1002.1 hPa | 0 mm | - | - | - |
| 1777801505 | 14.44° C | 74% | 1001.9 hPa | 0 mm | - | - | - |
| 1777800605 | 14.44° C | 72% | 1002 hPa | 0 mm | - | - | - |
| 1777799705 | 15° C | 71% | 1001.9 hPa | 0 mm | - | - | - |
| 1777798805 | 15° C | 69% | 1002 hPa | 0 mm | - | - | - |
| 1777797904 | 15° C | 70% | 1002.3 hPa | 0 mm | - | - | - |
| 1777797005 | 15° C | 72% | 1002.2 hPa | 0 mm | - | - | - |
| 1777796104 | 14.44° C | 73% | 1002.8 hPa | 0 mm | - | - | - |
| 1777795205 | 14.44° C | 75% | 1002.7 hPa | 0 mm | - | - | - |
| 1777794305 | 14.44° C | 75% | 1002.9 hPa | 0 mm | - | - | - |
| 1777793405 | 14.44° C | 75% | 1003.2 hPa | 0 mm | - | - | - |
| 1777792505 | 14.44° C | 74% | 1003.3 hPa | 0 mm | - | - | - |
| 1777791604 | 14.44° C | 73% | 1002.7 hPa | 0 mm | - | - | - |
| 1777790704 | 14.44° C | 72% | 1002.6 hPa | 0 mm | - | - | - |
| 1777789805 | 15° C | 65% | 1002.4 hPa | 0 mm | - | - | - |
| 1777788905 | 15.56° C | 63% | 1002.3 hPa | 0 mm | - | - | - |
| 1777788005 | 15° C | 67% | 1002.1 hPa | 0 mm | - | - | - |
| 1777787104 | 15.56° C | 63% | 1002.1 hPa | 0 mm | - | - | - |
| 1777786205 | 16.67° C | 61% | 1002 hPa | 0 mm | - | - | - |
| 1777785304 | 16.67° C | 59% | 1001.9 hPa | 0 mm | - | - | - |
| 1777784405 | 17.78° C | 55% | 1001.9 hPa | 0 mm | - | - | - |
| 1777783504 | 21.11° C | 37% | 1002 hPa | 0 mm | - | - | - |
* Rain latest hour (hover to see other rain measurements)
** Current wind speed in m/s (hover to see current wind gust speed)